createdAt,value
2022-07-29T00:01:05.120Z,15.47
2022-07-29T00:03:32.102Z,15.45
2022-07-29T00:05:59.331Z,15.44
2022-07-29T00:08:27.838Z,15.41
2022-07-29T00:10:54.663Z,15.41
2022-07-29T00:13:32.213Z,15.46
2022-07-29T00:16:04.595Z,15.47
2022-07-29T00:18:31.990Z,15.42
2022-07-29T00:20:58.781Z,15.40
2022-07-29T00:23:25.640Z,15.34
2022-07-29T00:25:52.389Z,15.35
2022-07-29T00:28:19.361Z,15.37
2022-07-29T00:30:47.575Z,15.28
2022-07-29T00:33:14.435Z,15.23
2022-07-29T00:35:47.427Z,15.25
2022-07-29T00:38:16.370Z,15.18
2022-07-29T00:40:44.651Z,15.23
2022-07-29T00:43:12.665Z,15.24
2022-07-29T00:45:39.712Z,15.23
2022-07-29T00:48:09.931Z,15.21
2022-07-29T00:50:37.903Z,15.18
2022-07-29T00:53:05.397Z,15.15
2022-07-29T00:55:32.316Z,15.13
2022-07-29T00:57:59.909Z,15.17
2022-07-29T01:00:29.039Z,15.18
2022-07-29T01:02:55.901Z,15.20
2022-07-29T01:05:25.719Z,15.18
2022-07-29T01:08:14.225Z,15.18
2022-07-29T01:10:42.395Z,15.13
2022-07-29T01:13:10.315Z,15.18
2022-07-29T01:15:49.291Z,15.25
2022-07-29T01:18:22.003Z,15.25
2022-07-29T01:21:11.264Z,15.17
2022-07-29T01:23:58.702Z,15.23
2022-07-29T01:26:46.819Z,15.28
2022-07-29T01:29:24.675Z,15.25
2022-07-29T01:31:59.279Z,15.17
2022-07-29T01:34:39.627Z,15.21
2022-07-29T01:37:16.457Z,15.23
2022-07-29T01:39:45.443Z,15.19
2022-07-29T01:42:20.301Z,15.13
2022-07-29T01:44:54.989Z,15.21
2022-07-29T01:47:26.194Z,15.19
2022-07-29T01:49:56.164Z,15.19
2022-07-29T01:52:29.852Z,15.21
2022-07-29T01:54:59.718Z,15.23
2022-07-29T01:57:30.470Z,15.22
2022-07-29T02:00:01.426Z,15.18
2022-07-29T02:02:39.819Z,15.14
2022-07-29T02:05:08.861Z,15.14
2022-07-29T02:07:37.852Z,15.22
2022-07-29T02:10:07.906Z,15.20
2022-07-29T02:12:36.749Z,15.16
2022-07-29T02:15:06.957Z,15.22
2022-07-29T02:17:38.767Z,15.27
2022-07-29T02:20:09.264Z,15.30
2022-07-29T02:22:40.198Z,15.25
2022-07-29T02:25:14.067Z,15.26
2022-07-29T02:27:42.637Z,15.25
2022-07-29T02:30:13.560Z,15.25
2022-07-29T02:32:42.828Z,15.23
2022-07-29T02:35:11.707Z,15.23
2022-07-29T02:37:39.432Z,15.29
2022-07-29T02:40:11.171Z,15.32
2022-07-29T02:42:39.808Z,15.38
2022-07-29T02:45:09.320Z,15.36
2022-07-29T02:47:42.237Z,15.34
2022-07-29T02:50:15.194Z,15.37
2022-07-29T02:52:45.100Z,15.38
2022-07-29T02:55:16.439Z,15.31
2022-07-29T02:57:54.104Z,15.43
2022-07-29T03:00:24.703Z,15.52
2022-07-29T03:02:56.000Z,15.52
2022-07-29T03:05:24.028Z,15.47
2022-07-29T03:07:55.969Z,15.54
2022-07-29T03:10:24.105Z,15.49
2022-07-29T03:12:51.676Z,15.53
2022-07-29T03:15:19.954Z,15.58
2022-07-29T03:17:47.385Z,15.68
2022-07-29T03:20:16.595Z,15.72
2022-07-29T03:22:45.234Z,15.60
2022-07-29T03:25:13.492Z,15.65
2022-07-29T03:27:40.616Z,15.63
2022-07-29T03:30:09.189Z,15.47
2022-07-29T03:32:36.299Z,15.35
2022-07-29T03:35:04.188Z,15.43
2022-07-29T03:37:32.589Z,15.46
2022-07-29T03:39:59.600Z,15.42
2022-07-29T03:42:34.154Z,15.37
2022-07-29T03:45:04.481Z,15.46
2022-07-29T03:47:39.308Z,15.42
2022-07-29T03:50:20.466Z,15.34
2022-07-29T03:52:50.031Z,15.34
2022-07-29T03:55:17.131Z,15.26
2022-07-29T03:57:45.049Z,15.21
2022-07-29T04:00:12.713Z,15.18
2022-07-29T04:02:41.337Z,15.15
2022-07-29T04:05:13.890Z,15.09
2022-07-29T04:07:41.058Z,15.06
2022-07-29T04:10:10.194Z,15.02
2022-07-29T04:12:37.492Z,15.04
2022-07-29T04:15:04.999Z,14.97
2022-07-29T04:17:31.809Z,14.96
2022-07-29T04:19:58.900Z,15.00
2022-07-29T04:22:25.838Z,14.95
2022-07-29T04:24:54.254Z,14.94
2022-07-29T04:27:22.482Z,15.01
2022-07-29T04:29:56.757Z,14.87
2022-07-29T04:32:24.682Z,15.00
2022-07-29T04:34:51.745Z,15.11
2022-07-29T04:37:18.570Z,15.15
2022-07-29T04:39:45.535Z,15.16
2022-07-29T04:42:12.341Z,15.14
2022-07-29T04:44:43.162Z,15.26
2022-07-29T04:47:10.259Z,15.22
2022-07-29T04:49:39.093Z,15.19
2022-07-29T04:52:06.497Z,15.22
2022-07-29T04:54:33.449Z,15.23
2022-07-29T04:57:00.324Z,15.23
2022-07-29T04:59:27.721Z,15.26
2022-07-29T05:01:55.959Z,15.28
2022-07-29T05:04:23.163Z,15.26
2022-07-29T05:06:50.204Z,15.12
2022-07-29T05:09:17.106Z,15.16
2022-07-29T05:11:44.025Z,15.18
2022-07-29T05:14:10.886Z,15.19
2022-07-29T05:16:37.715Z,15.24
2022-07-29T05:19:08.598Z,15.23
2022-07-29T05:21:38.019Z,15.23
2022-07-29T05:24:05.432Z,15.29
2022-07-29T05:26:32.530Z,15.43
2022-07-29T05:28:59.450Z,15.46
2022-07-29T05:31:26.329Z,15.57
2022-07-29T05:33:53.158Z,15.66
2022-07-29T05:36:21.290Z,15.69
2022-07-29T05:38:48.164Z,15.70
2022-07-29T05:41:15.007Z,15.79
2022-07-29T05:43:42.113Z,15.83
2022-07-29T05:46:09.073Z,15.88
2022-07-29T05:48:36.029Z,15.87
2022-07-29T05:51:02.976Z,15.88
2022-07-29T05:53:31.325Z,15.85
2022-07-29T05:55:58.066Z,15.90
2022-07-29T05:58:24.924Z,15.82
2022-07-29T06:00:51.839Z,15.87
2022-07-29T06:03:18.711Z,15.81
2022-07-29T06:05:45.537Z,15.90
2022-07-29T06:08:12.340Z,15.87
2022-07-29T06:10:40.689Z,15.88
2022-07-29T06:13:07.513Z,15.98
2022-07-29T06:15:34.531Z,16.03
2022-07-29T06:18:02.285Z,15.88
2022-07-29T06:20:31.415Z,15.88
2022-07-29T06:22:59.429Z,15.88
2022-07-29T06:25:26.997Z,15.86
2022-07-29T06:27:55.475Z,15.96
2022-07-29T06:30:22.893Z,15.91
2022-07-29T06:32:50.710Z,16.04
2022-07-29T06:35:41.177Z,16.10
2022-07-29T06:38:05.241Z,16.21
2022-07-29T06:41:04.961Z,16.23
2022-07-29T06:43:50.083Z,16.17
2022-07-29T06:46:19.060Z,16.16
2022-07-29T06:48:46.890Z,16.13
2022-07-29T06:51:13.640Z,16.17
2022-07-29T06:54:00.348Z,16.22
2022-07-29T06:56:28.348Z,16.26
2022-07-29T06:58:56.565Z,16.29
2022-07-29T07:01:23.356Z,16.27
2022-07-29T07:03:50.239Z,16.52
2022-07-29T07:06:17.391Z,16.58
2022-07-29T07:08:44.847Z,16.68
2022-07-29T07:11:11.678Z,16.84
2022-07-29T07:13:38.792Z,16.96
2022-07-29T07:16:07.092Z,17.02
2022-07-29T07:18:34.238Z,16.97
2022-07-29T07:21:01.304Z,17.05
2022-07-29T07:23:28.292Z,16.85
2022-07-29T07:25:55.129Z,16.82
2022-07-29T07:28:24.692Z,16.74
2022-07-29T07:30:52.099Z,16.82
2022-07-29T07:33:20.546Z,16.87
2022-07-29T07:35:47.534Z,16.87
2022-07-29T07:38:15.023Z,16.83
2022-07-29T07:40:42.497Z,16.73
2022-07-29T07:43:09.243Z,16.93
2022-07-29T07:45:38.372Z,17.09
2022-07-29T07:48:05.691Z,17.43
2022-07-29T07:50:33.854Z,17.74
2022-07-29T07:53:03.017Z,17.77
2022-07-29T07:55:53.245Z,18.47
2022-07-29T07:58:16.854Z,18.35
2022-07-29T08:00:46.069Z,18.52
2022-07-29T08:03:16.591Z,19.25
2022-07-29T08:05:45.909Z,19.39
2022-07-29T08:08:15.394Z,20.03
2022-07-29T08:10:54.465Z,20.73
2022-07-29T08:13:22.616Z,20.97
2022-07-29T08:15:58.762Z,20.99
2022-07-29T08:18:26.604Z,21.63
2022-07-29T08:20:55.206Z,21.89
2022-07-29T08:23:22.483Z,22.03
2022-07-29T08:25:50.290Z,21.89
2022-07-29T08:28:17.331Z,21.55
2022-07-29T08:30:44.380Z,21.85
2022-07-29T08:33:11.257Z,22.02
2022-07-29T08:35:39.968Z,22.51
2022-07-29T08:38:08.143Z,21.88
2022-07-29T08:40:34.945Z,22.14
2022-07-29T08:43:08.489Z,22.65
2022-07-29T08:45:48.192Z,22.65
2022-07-29T08:48:17.790Z,22.28
2022-07-29T08:50:46.744Z,22.17
2022-07-29T08:53:18.015Z,21.92
2022-07-29T08:55:46.366Z,22.14
2022-07-29T08:58:15.687Z,22.08
2022-07-29T09:00:44.383Z,22.29
2022-07-29T09:03:15.888Z,21.43
2022-07-29T09:05:47.759Z,21.89
2022-07-29T09:08:17.257Z,22.68
2022-07-29T09:10:44.683Z,22.92
2022-07-29T09:13:11.571Z,23.95
2022-07-29T09:15:38.319Z,24.30
2022-07-29T09:18:05.103Z,22.94
2022-07-29T09:20:51.797Z,23.79
2022-07-29T09:23:24.613Z,23.49
2022-07-29T09:25:51.827Z,24.33
2022-07-29T09:28:19.097Z,23.95
2022-07-29T09:30:52.327Z,24.10
2022-07-29T09:33:19.923Z,24.21
2022-07-29T09:35:56.589Z,24.23
2022-07-29T09:38:25.547Z,24.52
2022-07-29T09:41:05.615Z,24.62
2022-07-29T09:43:33.496Z,25.12
2022-07-29T09:46:12.273Z,24.81
2022-07-29T09:48:39.416Z,24.06
2022-07-29T09:51:07.512Z,23.48
2022-07-29T09:53:38.159Z,24.72
2022-07-29T09:56:06.063Z,24.48
2022-07-29T09:58:34.770Z,22.46
2022-07-29T10:01:02.762Z,24.48
2022-07-29T10:03:29.997Z,24.07
2022-07-29T10:06:08.275Z,26.24
2022-07-29T10:08:37.203Z,24.88
2022-07-29T10:11:13.858Z,24.33
2022-07-29T10:13:41.919Z,23.61
2022-07-29T10:16:09.377Z,23.65
2022-07-29T10:18:38.679Z,25.46
2022-07-29T10:21:05.699Z,25.80
2022-07-29T10:23:46.310Z,25.44
2022-07-29T10:26:16.649Z,25.77
2022-07-29T10:28:43.428Z,24.28
2022-07-29T10:31:16.648Z,25.12
2022-07-29T10:33:54.032Z,24.51
2022-07-29T10:36:33.697Z,23.61
2022-07-29T10:39:15.546Z,24.25
2022-07-29T10:42:03.600Z,23.74
2022-07-29T10:44:31.378Z,23.73
2022-07-29T10:46:58.934Z,24.59
2022-07-29T10:49:30.347Z,24.84
2022-07-29T10:52:00.919Z,25.99
2022-07-29T10:54:54.868Z,25.85
2022-07-29T10:57:53.207Z,24.74
2022-07-29T11:00:29.948Z,24.34
2022-07-29T11:02:59.535Z,24.85
2022-07-29T11:05:39.926Z,25.01
2022-07-29T11:08:35.053Z,26.11
2022-07-29T11:11:31.906Z,26.93
2022-07-29T11:14:00.705Z,27.83
2022-07-29T11:17:06.304Z,27.76
2022-07-29T11:19:34.474Z,26.66
2022-07-29T11:22:03.059Z,26.78
2022-07-29T11:24:34.784Z,27.51
2022-07-29T11:27:18.389Z,26.93
2022-07-29T11:29:57.283Z,27.23
2022-07-29T11:32:29.241Z,27.16
2022-07-29T11:35:17.601Z,26.60
2022-07-29T11:37:52.261Z,27.93
2022-07-29T11:40:23.064Z,26.49
2022-07-29T11:42:52.177Z,27.77
2022-07-29T11:45:44.272Z,27.24
2022-07-29T11:48:29.494Z,28.51
2022-07-29T11:51:00.267Z,27.74
2022-07-29T11:56:16.429Z,27.62
2022-07-29T11:58:44.181Z,27.37
2022-07-29T12:01:18.525Z,27.29
2022-07-29T12:03:45.458Z,26.34
2022-07-29T12:06:14.815Z,24.95
2022-07-29T12:08:44.000Z,25.12
2022-07-29T12:11:17.717Z,25.88
2022-07-29T12:13:49.315Z,25.63
2022-07-29T12:16:29.302Z,25.35
2022-07-29T12:19:02.456Z,25.92
2022-07-29T12:21:30.239Z,25.68
2022-07-29T12:24:03.471Z,25.26
2022-07-29T12:26:34.121Z,27.06
2022-07-29T12:29:03.288Z,27.27
2022-07-29T12:31:43.517Z,26.96
2022-07-29T12:34:12.831Z,25.89
2022-07-29T12:36:39.693Z,25.42
2022-07-29T12:39:06.656Z,24.54
2022-07-29T12:41:33.550Z,25.13
2022-07-29T12:44:00.456Z,24.94
2022-07-29T12:46:27.554Z,24.91
2022-07-29T12:48:56.277Z,23.75
2022-07-29T12:51:30.252Z,23.97
2022-07-29T12:54:05.951Z,24.53
2022-07-29T12:56:42.761Z,24.94
2022-07-29T12:59:18.845Z,25.71
2022-07-29T13:01:48.111Z,26.40
2022-07-29T13:04:27.868Z,26.27
2022-07-29T13:07:00.804Z,26.75
2022-07-29T13:09:38.213Z,25.49
2022-07-29T13:12:08.598Z,24.94
2022-07-29T13:14:37.869Z,24.40
2022-07-29T13:17:06.803Z,24.33
2022-07-29T13:19:37.716Z,25.13
2022-07-29T13:22:05.424Z,25.71
2022-07-29T13:24:32.257Z,25.15
2022-07-29T13:26:59.143Z,25.73
2022-07-29T13:29:31.349Z,25.03
2022-07-29T13:31:58.941Z,25.57
2022-07-29T13:34:26.118Z,25.64
2022-07-29T13:36:54.527Z,25.22
2022-07-29T13:39:21.307Z,24.83
2022-07-29T13:41:48.139Z,25.80
2022-07-29T13:44:16.104Z,25.86
2022-07-29T13:46:42.977Z,26.36
2022-07-29T13:49:09.795Z,26.18
2022-07-29T13:51:36.668Z,26.03
2022-07-29T13:54:04.840Z,25.78
2022-07-29T13:56:31.873Z,25.51
2022-07-29T13:58:58.660Z,24.63
2022-07-29T14:01:26.192Z,24.88
2022-07-29T14:03:52.993Z,25.38
2022-07-29T14:06:20.183Z,25.17
2022-07-29T14:08:49.320Z,25.52
2022-07-29T14:11:17.521Z,25.85
2022-07-29T14:13:45.802Z,24.56
2022-07-29T14:16:12.820Z,24.99
2022-07-29T14:18:39.729Z,25.27
2022-07-29T14:21:06.555Z,25.55
2022-07-29T14:23:33.404Z,25.66
2022-07-29T14:26:00.815Z,24.25
2022-07-29T14:28:29.733Z,24.12
2022-07-29T14:30:56.407Z,25.34
2022-07-29T14:33:23.175Z,26.37
2022-07-29T14:35:50.049Z,25.48
2022-07-29T14:38:16.820Z,23.67
2022-07-29T14:40:43.649Z,24.90
2022-07-29T14:43:10.404Z,24.88
2022-07-29T14:45:38.565Z,24.53
2022-07-29T14:48:05.859Z,24.98
2022-07-29T14:50:33.224Z,26.06
2022-07-29T14:53:00.109Z,24.80
2022-07-29T14:55:27.188Z,24.74
2022-07-29T14:58:03.089Z,24.65
2022-07-29T15:00:34.931Z,23.81
2022-07-29T15:03:03.923Z,24.17
2022-07-29T15:05:31.485Z,23.91
2022-07-29T15:07:58.414Z,25.24
2022-07-29T15:10:27.142Z,26.11
2022-07-29T15:12:53.943Z,25.29
2022-07-29T15:15:20.886Z,24.83
2022-07-29T15:17:47.903Z,26.16
2022-07-29T15:20:16.101Z,26.34
2022-07-29T15:22:43.941Z,26.59
2022-07-29T15:25:11.163Z,26.10
2022-07-29T15:27:38.084Z,27.41
2022-07-29T15:30:05.739Z,28.23
2022-07-29T15:32:32.611Z,29.13
2022-07-29T15:34:59.512Z,27.47
2022-07-29T15:37:29.670Z,28.71
2022-07-29T15:40:16.551Z,29.17
2022-07-29T15:42:43.329Z,28.78
2022-07-29T15:45:10.621Z,29.58
2022-07-29T15:47:37.580Z,29.54
2022-07-29T15:50:05.533Z,29.80
2022-07-29T15:52:33.894Z,29.75
2022-07-29T15:55:00.718Z,30.15
2022-07-29T15:57:27.463Z,30.24
2022-07-29T15:59:54.338Z,29.93
2022-07-29T16:02:21.135Z,29.84
2022-07-29T16:04:47.986Z,29.29
2022-07-29T16:07:14.740Z,30.67
2022-07-29T16:09:43.656Z,30.50
2022-07-29T16:12:14.970Z,30.29
2022-07-29T16:14:42.822Z,28.85
2022-07-29T16:17:09.660Z,26.55
2022-07-29T16:19:41.500Z,24.79
2022-07-29T16:22:08.331Z,24.71
2022-07-29T16:24:35.193Z,25.14
2022-07-29T16:27:03.498Z,25.68
2022-07-29T16:29:30.346Z,25.43
2022-07-29T16:31:57.257Z,25.52
2022-07-29T16:34:24.363Z,25.70
2022-07-29T16:36:51.171Z,24.93
2022-07-29T16:39:17.908Z,25.36
2022-07-29T16:41:44.680Z,24.40
2022-07-29T16:44:12.931Z,23.14
2022-07-29T16:46:39.672Z,22.64
2022-07-29T16:49:08.436Z,22.37
2022-07-29T16:51:35.386Z,22.28
2022-07-29T16:54:02.227Z,22.03
2022-07-29T16:56:29.061Z,21.84
2022-07-29T16:58:57.476Z,21.87
2022-07-29T17:01:25.677Z,22.06
2022-07-29T17:04:07.546Z,22.05
2022-07-29T17:06:35.199Z,21.57
2022-07-29T17:09:02.395Z,21.43
2022-07-29T17:11:52.426Z,21.52
2022-07-29T17:14:16.438Z,21.34
2022-07-29T17:17:00.627Z,21.39
2022-07-29T17:19:31.212Z,21.52
2022-07-29T17:22:06.352Z,21.70
2022-07-29T17:24:36.066Z,21.63
2022-07-29T17:27:02.988Z,21.64
2022-07-29T17:29:32.244Z,21.78
2022-07-29T17:32:00.283Z,21.61
2022-07-29T17:34:27.353Z,21.14
2022-07-29T17:36:54.141Z,20.88
2022-07-29T17:39:21.759Z,20.72
2022-07-29T17:41:48.662Z,20.73
2022-07-29T17:44:15.538Z,20.68
2022-07-29T17:46:42.502Z,20.61
2022-07-29T17:49:11.331Z,20.52
2022-07-29T17:51:38.499Z,20.63
2022-07-29T17:54:05.509Z,20.72
2022-07-29T17:56:34.267Z,20.69
2022-07-29T17:59:06.466Z,20.73
2022-07-29T18:01:34.058Z,20.74
2022-07-29T18:04:02.428Z,20.92
2022-07-29T18:06:31.016Z,20.78
2022-07-29T18:08:57.779Z,20.54
2022-07-29T18:11:24.659Z,20.25
2022-07-29T18:13:52.019Z,19.99
2022-07-29T18:16:19.676Z,19.89
2022-07-29T18:18:46.807Z,19.85
2022-07-29T18:21:13.666Z,20.01
2022-07-29T18:23:42.600Z,20.21
2022-07-29T18:26:09.821Z,20.00
2022-07-29T18:28:36.737Z,19.72
2022-07-29T18:31:03.699Z,19.57
2022-07-29T18:33:32.517Z,19.64
2022-07-29T18:36:10.065Z,19.74
2022-07-29T18:38:38.363Z,19.49
2022-07-29T18:41:06.551Z,19.15
2022-07-29T18:43:33.471Z,18.91
2022-07-29T18:46:00.570Z,18.76
2022-07-29T18:48:27.373Z,18.70
2022-07-29T18:50:54.480Z,18.55
2022-07-29T18:53:21.257Z,18.49
2022-07-29T18:55:48.068Z,18.34
2022-07-29T18:58:16.158Z,18.32
2022-07-29T19:00:43.533Z,18.20
2022-07-29T19:03:10.548Z,18.17
2022-07-29T19:05:37.477Z,18.15
2022-07-29T19:08:04.611Z,18.11
2022-07-29T19:10:31.427Z,18.04
2022-07-29T19:12:58.826Z,17.96
2022-07-29T19:15:27.531Z,17.92
2022-07-29T19:17:59.022Z,17.86
2022-07-29T19:20:27.762Z,17.82
2022-07-29T19:22:54.586Z,17.72
2022-07-29T19:25:23.084Z,17.70
2022-07-29T19:27:49.871Z,17.59
2022-07-29T19:30:16.991Z,17.52
2022-07-29T19:32:45.112Z,17.41
2022-07-29T19:35:30.555Z,17.40
2022-07-29T19:38:00.779Z,17.38
2022-07-29T19:40:28.890Z,17.37
2022-07-29T19:42:56.172Z,17.33
2022-07-29T19:45:24.879Z,17.25
2022-07-29T19:47:57.697Z,17.24
2022-07-29T19:50:27.679Z,17.15
2022-07-29T19:52:54.573Z,17.07
2022-07-29T19:55:22.004Z,17.10
2022-07-29T19:57:49.015Z,17.05
2022-07-29T20:00:16.442Z,17.00
2022-07-29T20:02:43.724Z,16.95
2022-07-29T20:05:12.346Z,16.91
2022-07-29T20:07:40.086Z,16.89
2022-07-29T20:10:08.956Z,16.89
2022-07-29T20:12:38.020Z,16.87
2022-07-29T20:15:07.244Z,16.86
2022-07-29T20:17:39.763Z,16.81
2022-07-29T20:20:09.150Z,16.81
2022-07-29T20:22:37.822Z,16.79
2022-07-29T20:25:05.894Z,16.73
2022-07-29T20:27:32.748Z,16.70
2022-07-29T20:29:59.498Z,16.65
2022-07-29T20:32:26.602Z,16.62
2022-07-29T20:34:53.715Z,16.57
2022-07-29T20:37:20.709Z,16.52
2022-07-29T20:39:48.920Z,16.50
2022-07-29T20:42:15.760Z,16.48
2022-07-29T20:44:43.133Z,16.45
2022-07-29T20:47:10.003Z,16.44
2022-07-29T20:49:37.104Z,16.42
2022-07-29T20:52:04.205Z,16.40
2022-07-29T20:54:31.129Z,16.37
2022-07-29T20:56:59.618Z,16.27
2022-07-29T20:59:26.605Z,16.19
2022-07-29T21:01:55.669Z,16.13
2022-07-29T21:04:22.564Z,16.07
2022-07-29T21:06:57.775Z,16.03
2022-07-29T21:09:24.823Z,16.00
2022-07-29T21:11:51.621Z,15.97
2022-07-29T21:14:40.190Z,15.91
2022-07-29T21:17:10.374Z,15.86
2022-07-29T21:19:37.214Z,15.85
2022-07-29T21:22:04.024Z,15.90
2022-07-29T21:24:30.843Z,15.90
2022-07-29T21:27:21.134Z,15.87
2022-07-29T21:29:49.979Z,15.88
2022-07-29T21:32:29.614Z,15.85
2022-07-29T21:34:57.303Z,15.81
2022-07-29T21:37:24.367Z,15.83
2022-07-29T21:39:51.489Z,15.84
2022-07-29T21:42:18.285Z,15.85
2022-07-29T21:44:45.394Z,15.88
2022-07-29T21:47:13.596Z,15.85
2022-07-29T21:49:40.425Z,15.79
2022-07-29T21:52:07.917Z,15.78
2022-07-29T21:54:35.836Z,15.79
2022-07-29T21:57:03.197Z,15.76
2022-07-29T21:59:30.467Z,15.75
2022-07-29T22:02:01.112Z,15.72
2022-07-29T22:04:29.806Z,15.66
2022-07-29T22:06:58.182Z,15.60
2022-07-29T22:09:25.723Z,15.53
2022-07-29T22:11:52.641Z,15.50
2022-07-29T22:14:19.550Z,15.47
2022-07-29T22:16:47.770Z,15.47
2022-07-29T22:19:15.403Z,15.49
2022-07-29T22:21:43.684Z,15.33
2022-07-29T22:24:11.294Z,15.08
2022-07-29T22:26:38.494Z,14.91
2022-07-29T22:29:05.525Z,14.75
2022-07-29T22:31:32.546Z,14.68
2022-07-29T22:33:59.418Z,14.64
2022-07-29T22:36:26.869Z,14.71
2022-07-29T22:38:55.043Z,14.66
2022-07-29T22:41:21.810Z,14.64
2022-07-29T22:43:48.570Z,14.65
2022-07-29T22:46:15.475Z,14.68
2022-07-29T22:48:42.459Z,14.77
2022-07-29T22:51:09.305Z,14.81
2022-07-29T22:53:37.020Z,14.79
2022-07-29T22:56:05.906Z,14.78
2022-07-29T22:58:32.674Z,14.77
2022-07-29T23:00:59.567Z,14.72
2022-07-29T23:03:26.610Z,14.72
2022-07-29T23:05:53.393Z,14.70
2022-07-29T23:08:20.691Z,14.64
2022-07-29T23:10:47.616Z,14.63
2022-07-29T23:13:15.840Z,14.63
2022-07-29T23:15:43.179Z,14.63
2022-07-29T23:18:10.003Z,14.61
2022-07-29T23:20:36.888Z,14.61
2022-07-29T23:23:04.098Z,14.55
2022-07-29T23:25:31.272Z,14.64
2022-07-29T23:27:58.144Z,14.65
2022-07-29T23:30:26.810Z,14.69
2022-07-29T23:32:54.929Z,14.72
2022-07-29T23:35:25.661Z,14.74
2022-07-29T23:37:52.727Z,14.76
2022-07-29T23:40:19.785Z,14.73
2022-07-29T23:42:46.541Z,14.64
2022-07-29T23:45:13.988Z,14.56
2022-07-29T23:47:42.405Z,14.48
2022-07-29T23:50:14.079Z,14.43
2022-07-29T23:52:41.352Z,14.39
2022-07-29T23:55:36.854Z,14.43
2022-07-29T23:57:55.737Z,14.41
